EGTK/OXF METAR and TAF weather

Enter ICAO airport designator
Station Type Date Time Source
EGTK METAR 2018/12/12 16:20 UTC NOAA

EGTK 121620Z 13010KT 9999 SCT035 05/01 Q1020


Station Type Date Time Source
EGTK Decoded METAR 2018/12/12 16:20 UTC NOAA

Station name not available
Dec 12, 2018 - 11:20 AM EST / 2018.12.12 1620 UTC
Wind: from the SE (130 degrees) at 12 MPH (10 KT):0
Visibility: greater than 7 mile(s):0
Sky conditions: partly cloudy
Temperature: 41 F (5 C)
Dew Point: 33 F (1 C)
Relative Humidity: 75%
Pressure (altimeter): 30.12 in. Hg (1020 hPa)
ob: EGTK 121620Z 13010KT 9999 SCT035 05/01 Q1020
cycle: 16

Station Type Date Time Source
EGTK TAF UTC NOAA

Error!


Example: see airport list